Time;durP1;ratioP1;P1;durP2;ratioP2;P2;SDS_P1;SDS_P2;PMS_P1;PMS_P2;Temp;Humidity;BMP_temperature;BMP_pressure;BME280_temperature;BME280_humidity;BME280_pressure;Samples;Min_cycle;Max_cycle;Signal;HPM_P1;HPM_P2
2023/08/24 00:01:59;;;;;;;2.90;2.70;;;24.10;99.90;;;24.73;63.88;100731.78;4983178;28;20698;-64
2023/08/24 00:04:26;;;;;;;4.67;3.07;;;24.10;99.90;;;24.71;63.69;100725.81;4982300;28;20654;-64
2023/08/24 00:06:54;;;;;;;3.00;2.80;;;24.00;99.90;;;24.71;62.73;100717.00;4992591;28;20720;-65
2023/08/24 00:09:21;;;;;;;3.13;2.93;;;24.00;99.90;;;24.72;62.46;100721.31;4981099;28;21063;-65
2023/08/24 00:11:48;;;;;;;3.13;2.83;;;24.00;99.90;;;24.71;63.22;100715.16;4997446;28;21427;-64
2023/08/24 00:14:15;;;;;;;2.83;2.63;;;24.00;99.90;;;24.69;62.55;100711.84;4978580;28;20675;-64
2023/08/24 00:16:42;;;;;;;3.30;3.10;;;24.00;99.90;;;24.66;62.63;100712.25;4994203;28;20646;-64
2023/08/24 00:19:09;;;;;;;3.37;2.97;;;24.00;99.90;;;24.66;62.42;100712.25;4983840;28;20680;-64
2023/08/24 00:21:36;;;;;;;3.47;3.27;;;24.00;99.90;;;24.64;62.72;100706.28;4984455;28;20650;-64
2023/08/24 00:24:03;;;;;;;4.17;3.17;;;24.00;99.90;;;24.58;62.74;100705.25;4978352;28;20736;-64
2023/08/24 00:26:30;;;;;;;3.57;2.93;;;24.00;99.90;;;24.53;63.34;100702.34;4987639;28;21287;-64
2023/08/24 00:28:57;;;;;;;3.37;3.10;;;23.90;99.90;;;24.53;63.33;100707.69;4974855;28;20670;-64
2023/08/24 00:31:24;;;;;;;2.90;2.70;;;23.90;99.90;;;24.50;63.73;100710.75;4987545;28;21029;-64
2023/08/24 00:33:51;;;;;;;3.87;3.10;;;23.90;99.90;;;24.52;64.32;100726.56;4977650;28;20757;-65
2023/08/24 00:36:18;;;;;;;2.97;2.77;;;23.90;99.90;;;24.52;64.80;100727.41;4972084;28;20642;-65
2023/08/24 00:38:47;;;;;;;3.33;3.13;;;23.90;99.90;;;24.54;65.68;100732.53;4984295;28;20634;-65
2023/08/24 00:41:14;;;;;;;3.00;2.80;;;23.90;99.90;;;24.54;65.86;100735.19;4982350;28;20666;-64
2023/08/24 00:43:41;;;;;;;3.97;2.50;;;23.90;99.90;;;24.55;64.86;100747.53;5002813;28;21348;-64
2023/08/24 00:46:08;;;;;;;3.10;2.90;;;23.90;99.90;;;24.53;64.63;100755.69;4975210;28;20651;-63
2023/08/24 00:48:35;;;;;;;6.30;2.70;;;23.90;99.90;;;24.51;64.10;100756.94;4991170;28;21497;-64
2023/08/24 00:51:02;;;;;;;3.67;2.37;;;23.90;99.90;;;24.42;61.93;100742.94;4982205;28;21279;-63
2023/08/24 00:53:32;;;;;;;2.13;1.77;;;23.80;99.90;;;24.33;60.05;100728.13;4982012;28;20678;-64
2023/08/24 00:56:00;;;;;;;2.03;1.77;;;23.70;99.90;;;24.31;59.67;100724.00;4986629;28;20669;-64
2023/08/24 00:58:27;;;;;;;2.17;2.00;;;23.70;99.90;;;24.29;59.08;100734.88;4979688;28;20650;-64
2023/08/24 01:00:56;;;;;;;2.00;1.90;;;23.70;99.80;;;24.22;58.54;100736.66;4968318;28;20666;-64
2023/08/24 01:03:24;;;;;;;1.87;1.77;;;23.60;99.10;;;24.16;57.90;100737.44;5001513;28;20635;-64
2023/08/24 01:05:51;;;;;;;2.00;1.90;;;23.60;98.80;;;24.12;58.30;100746.03;4984115;28;20713;-64
2023/08/24 01:08:21;;;;;;;2.70;2.33;;;23.50;98.80;;;24.09;58.23;100741.91;4990626;28;20641;-64
2023/08/24 01:11:19;;;;;;;2.03;1.83;;;23.50;99.10;;;24.08;58.44;100745.59;5006195;28;20654;-64
2023/08/24 01:14:14;;;;;;;1.77;1.67;;;23.50;98.90;;;24.04;57.83;100749.69;4987937;28;20702;-64
2023/08/24 01:16:46;;;;;;;1.70;1.60;;;23.50;98.70;;;24.01;58.05;100750.03;4969658;28;21277;-63
2023/08/24 01:19:46;;;;;;;4.20;2.13;;;23.40;98.60;;;23.95;57.49;100748.13;4970211;28;20940;-64
2023/08/24 01:22:54;;;;;;;2.13;1.97;;;23.40;98.30;;;23.91;57.89;100745.03;4964257;28;20667;-63
2023/08/24 01:25:49;;;;;;;2.87;1.93;;;23.30;98.50;;;23.89;58.63;100752.38;4997980;28;21072;-63
2023/08/24 01:28:16;;;;;;;2.43;2.00;;;23.30;98.80;;;23.87;58.55;100749.09;4993807;28;20661;-64
2023/08/24 01:30:44;;;;;;;2.30;2.10;;;23.30;99.00;;;23.87;58.42;100742.97;4988077;28;21335;-64
2023/08/24 01:33:11;;;;;;;2.47;2.30;;;23.30;99.00;;;23.90;58.29;100731.91;5003617;28;21297;-64
2023/08/24 01:35:39;;;;;;;2.43;2.30;;;23.30;98.90;;;23.91;58.62;100745.03;4976537;28;20646;-64
2023/08/24 01:38:07;;;;;;;3.20;2.60;;;23.30;98.90;;;23.90;58.66;100743.38;5002358;28;21210;-63
2023/08/24 01:40:59;;;;;;;2.17;2.00;;;23.30;98.90;;;23.89;58.37;100743.59;4983522;28;20638;-64
2023/08/24 01:43:33;;;;;;;2.60;2.40;;;23.30;98.80;;;23.87;58.82;100741.09;4989209;28;20643;-63
2023/08/24 01:46:14;;;;;;;3.13;2.40;;;23.30;99.00;;;23.85;58.46;100732.47;4999941;28;21422;-64
2023/08/24 01:48:44;;;;;;;1.90;1.80;;;23.30;98.90;;;23.83;58.27;100741.66;4990608;28;20696;-63
2023/08/24 01:51:12;;;;;;;1.93;1.80;;;23.30;98.80;;;23.81;58.86;100733.06;4987477;28;20657;-63
2023/08/24 01:53:40;;;;;;;2.00;1.90;;;23.20;99.00;;;23.78;59.17;100738.78;4997350;28;20684;-64
2023/08/24 01:56:15;;;;;;;2.17;2.07;;;23.20;99.20;;;23.76;58.74;100732.81;4984381;28;20630;-64
2023/08/24 01:58:42;;;;;;;2.50;2.30;;;23.20;99.20;;;23.75;58.90;100728.50;4985566;28;21077;-64
2023/08/24 02:01:12;;;;;;;2.30;2.20;;;23.20;99.20;;;23.74;58.99;100729.53;4972372;28;20774;-64
2023/08/24 02:03:39;;;;;;;2.10;1.90;;;23.20;99.20;;;23.71;59.09;100727.25;4970428;28;20643;-64
2023/08/24 02:06:07;;;;;;;2.80;2.60;;;23.20;99.40;;;23.68;59.40;100717.00;4977836;28;20641;-63
2023/08/24 02:08:35;;;;;;;2.37;2.13;;;23.10;99.40;;;23.66;59.65;100722.50;4971122;28;20649;-65
2023/08/24 02:11:02;;;;;;;2.37;2.20;;;23.10;99.50;;;23.66;59.64;100719.03;4976208;28;20669;-64
2023/08/24 02:13:29;;;;;;;2.10;2.00;;;23.10;99.90;;;23.66;59.72;100714.50;4986676;28;21263;-64
2023/08/24 02:16:07;;;;;;;3.23;1.93;;;23.10;99.70;;;23.64;60.17;100715.69;4972832;28;20692;-63
2023/08/24 02:18:34;;;;;;;2.10;2.00;;;23.00;99.90;;;23.64;60.22;100713.03;4989642;28;20633;-64
2023/08/24 02:21:08;;;;;;;2.40;2.20;;;23.00;99.90;;;23.61;60.54;100705.44;4976787;28;20669;-64
2023/08/24 02:23:35;;;;;;;2.93;2.60;;;23.00;99.90;;;23.58;60.45;100698.66;4982563;28;20668;-64
2023/08/24 02:26:03;;;;;;;3.10;2.90;;;23.00;99.90;;;23.58;60.48;100708.47;4989459;28;20655;-64
2023/08/24 02:28:42;;;;;;;2.90;2.70;;;23.00;99.90;;;23.63;60.50;100706.06;4968801;28;20648;-64
2023/08/24 02:31:09;;;;;;;2.80;2.60;;;23.00;99.90;;;23.61;60.82;100711.59;4971812;28;20749;-64
2023/08/24 02:33:36;;;;;;;3.13;2.83;;;23.00;99.90;;;23.63;60.82;100706.91;4970660;28;20677;-65
2023/08/24 02:36:03;;;;;;;2.77;2.57;;;23.00;99.90;;;23.65;61.01;100702.22;4984638;28;20666;-64
2023/08/24 02:38:30;;;;;;;3.43;3.13;;;23.00;99.90;;;23.66;60.52;100692.38;4989719;28;20726;-64
2023/08/24 02:41:06;;;;;;;2.63;2.50;;;23.00;99.90;;;23.62;60.65;100691.09;4976778;28;20655;-64
2023/08/24 02:43:34;;;;;;;2.63;2.43;;;23.00;99.90;;;23.58;61.29;100688.00;4968024;28;20638;-64
2023/08/24 02:46:03;;;;;;;3.30;3.00;;;22.90;99.90;;;23.56;61.27;100690.03;4994479;28;20646;-64
2023/08/24 02:48:32;;;;;;;2.80;2.60;;;22.90;99.90;;;23.57;61.44;100704.19;4989501;28;20673;-64
2023/08/24 02:51:00;;;;;;;2.80;2.60;;;23.00;99.90;;;23.57;61.52;100701.53;4984238;28;21415;-64
2023/08/24 02:53:28;;;;;;;3.63;3.23;;;23.00;99.90;;;23.57;61.59;100704.19;4986966;28;20706;-64
2023/08/24 02:55:58;;;;;;;2.90;2.70;;;23.00;99.90;;;23.56;61.50;100702.53;4976416;28;21018;-64
2023/08/24 02:58:26;;;;;;;4.27;3.20;;;23.00;99.90;;;23.52;61.82;100695.94;4970424;28;20631;-64
2023/08/24 03:00:53;;;;;;;2.70;2.50;;;22.90;99.90;;;23.52;61.57;100696.78;4988260;28;20677;-64
2023/08/24 03:03:20;;;;;;;3.40;3.10;;;22.90;99.90;;;23.52;61.43;100698.59;4985415;28;20665;-64
2023/08/24 03:05:59;;;;;;;3.30;3.00;;;22.90;99.90;;;23.55;61.86;100701.69;4985707;28;20638;-64
2023/08/24 03:08:26;;;;;;;2.40;2.30;;;23.00;99.90;;;23.52;61.81;100701.25;4989126;28;20629;-65
2023/08/24 03:10:53;;;;;;;2.87;2.60;;;22.90;99.90;;;23.51;62.02;100694.31;4977183;28;21516;-64
2023/08/24 03:13:20;;;;;;;3.00;2.80;;;22.90;99.90;;;23.53;61.78;100690.41;4993643;28;21143;-64
2023/08/24 03:15:47;;;;;;;3.40;3.10;;;22.90;99.90;;;23.54;62.14;100683.25;4993602;28;20725;-64
2023/08/24 03:18:16;;;;;;;3.00;2.80;;;22.90;99.90;;;23.56;61.89;100665.25;4993699;28;20626;-64
2023/08/24 03:20:45;;;;;;;2.20;2.10;;;23.00;99.90;;;23.49;62.34;100645.75;5007884;28;20708;-64
2023/08/24 03:23:13;;;;;;;2.93;2.27;;;22.90;99.90;;;23.45;61.94;100615.16;4984781;28;20650;-64
2023/08/24 03:25:41;;;;;;;2.57;2.20;;;22.90;99.90;;;23.37;62.39;100591.34;4988701;28;20729;-64
2023/08/24 03:28:09;;;;;;;2.37;1.90;;;22.90;99.90;;;23.23;63.34;100584.25;4992797;28;20629;-64
2023/08/24 03:30:39;;;;;;;2.63;2.43;;;22.70;99.90;;;23.06;64.62;100575.75;4988095;28;20655;-64
2023/08/24 03:33:06;;;;;;;3.00;2.80;;;22.60;99.90;;;22.91;65.36;100575.78;4976132;28;20682;-64
2023/08/24 03:35:34;;;;;;;6.37;3.50;;;22.40;99.90;;;22.86;66.19;100577.38;4982265;28;21363;-64
2023/08/24 03:38:01;;;;;;;3.43;3.00;;;22.30;99.90;;;22.87;66.17;100585.16;4978830;28;21090;-64
2023/08/24 03:40:28;;;;;;;3.37;2.73;;;22.30;99.90;;;22.91;66.49;100575.78;4988419;28;20634;-64
2023/08/24 03:42:55;;;;;;;3.13;2.80;;;22.40;99.90;;;22.95;66.27;100585.06;4992788;28;20626;-64
2023/08/24 03:45:22;;;;;;;3.33;3.03;;;22.40;99.90;;;23.00;66.17;100598.59;4986215;28;20708;-66
2023/08/24 03:47:50;;;;;;;2.97;2.77;;;22.40;99.90;;;23.08;66.76;100608.31;4980375;28;20626;-64
2023/08/24 03:50:18;;;;;;;8.17;3.00;;;22.40;99.90;;;23.12;66.33;100605.06;4985567;28;20651;-63
2023/08/24 03:52:44;;;;;;;4.17;3.77;;;22.50;99.90;;;23.15;66.41;100598.50;4983731;28;20670;-64
2023/08/24 03:55:11;;;;;;;3.43;2.97;;;22.60;99.90;;;23.13;66.43;100589.91;4977418;28;20722;-64
2023/08/24 03:57:38;;;;;;;3.33;3.07;;;22.60;99.90;;;23.13;66.51;100593.41;4994197;28;20667;-64
2023/08/24 04:00:11;;;;;;;3.00;2.80;;;22.60;99.90;;;23.14;66.57;100581.75;4975810;28;20733;-64
2023/08/24 04:02:41;;;;;;;3.33;3.00;;;22.60;99.90;;;23.15;66.49;100590.53;4983134;28;21246;-64
2023/08/24 04:05:09;;;;;;;2.87;2.67;;;22.60;99.90;;;23.17;66.46;100593.03;4983289;28;20696;-63
2023/08/24 04:07:37;;;;;;;3.93;3.60;;;22.60;99.90;;;23.23;66.31;100600.22;4997355;28;20638;-63
2023/08/24 04:10:08;;;;;;;4.70;3.87;;;22.60;99.90;;;23.30;66.54;100598.47;4984124;28;20998;-64
2023/08/24 04:12:35;;;;;;;4.80;4.00;;;22.70;99.90;;;23.35;65.96;100615.53;4999472;28;20681;-64
2023/08/24 04:15:02;;;;;;;4.17;3.00;;;22.80;99.90;;;23.34;66.20;100603.22;4991065;28;20733;-64
2023/08/24 04:17:29;;;;;;;3.20;2.90;;;22.80;99.90;;;;;;4996267;28;21056;-63
2023/08/24 04:19:56;;;;;;;3.57;3.03;;;22.80;99.90;;;23.23;66.63;100610.88;4981879;28;20634;-64
2023/08/24 04:22:23;;;;;;;4.00;2.90;;;22.70;99.90;;;23.24;66.52;100612.50;4977592;28;20665;-63
2023/08/24 04:24:50;;;;;;;3.90;3.10;;;22.70;99.90;;;23.25;66.62;100608.84;4983971;28;20642;-63
2023/08/24 04:27:17;;;;;;;2.90;2.70;;;22.70;99.90;;;23.31;65.97;100613.41;4990785;28;20634;-63
2023/08/24 04:29:44;;;;;;;4.20;3.20;;;22.80;99.90;;;23.33;66.48;100603.41;4974862;28;20654;-64
2023/08/24 04:32:11;;;;;;;2.83;2.63;;;22.80;99.90;;;23.32;65.80;100599.09;4972415;28;20666;-63
2023/08/24 04:34:38;;;;;;;5.10;3.77;;;22.80;99.90;;;23.30;65.92;100601.13;4987914;28;21128;-64
2023/08/24 04:37:06;;;;;;;2.57;2.37;;;22.80;99.90;;;23.27;66.36;100596.16;4984316;28;20638;-64
2023/08/24 04:39:35;;;;;;;3.20;2.73;;;22.70;99.90;;;23.23;66.57;100589.59;4976104;28;20645;-63
2023/08/24 04:42:02;;;;;;;3.23;2.90;;;22.70;99.90;;;23.21;66.04;100586.28;4973453;28;21271;-64
2023/08/24 04:44:29;;;;;;;3.30;3.00;;;22.70;99.90;;;23.19;66.27;100593.66;4972673;28;20635;-64
2023/08/24 04:46:56;;;;;;;2.93;2.73;;;22.70;99.90;;;23.17;66.55;100593.81;4968141;28;20643;-64
2023/08/24 04:49:23;;;;;;;3.87;2.93;;;22.60;99.90;;;23.16;66.41;100594.84;4988974;28;20737;-65
2023/08/24 04:51:50;;;;;;;3.10;2.90;;;22.60;99.90;;;23.13;66.66;100590.72;4991441;28;20646;-64
2023/08/24 04:54:17;;;;;;;2.90;2.70;;;22.60;99.90;;;23.15;66.80;100593.19;4997480;28;20674;-64
2023/08/24 04:56:44;;;;;;;8.00;3.57;;;22.60;99.90;;;23.17;66.81;100593.03;4973919;28;20631;-64
2023/08/24 04:59:11;;;;;;;7.97;4.00;;;22.60;99.90;;;23.20;66.35;100585.47;4979000;28;20659;-64
2023/08/24 05:01:38;;;;;;;12.03;3.70;;;22.60;99.90;;;23.26;66.45;100591.84;4974523;28;20778;-64
2023/08/24 05:04:05;;;;;;;4.50;3.70;;;22.70;99.90;;;23.33;66.36;100596.25;4973411;28;20627;-63
2023/08/24 05:06:32;;;;;;;4.20;3.80;;;22.80;99.90;;;23.42;66.25;100605.75;4984905;28;21322;-64
2023/08/24 05:08:59;;;;;;;2.87;2.67;;;22.80;99.90;;;23.47;66.28;100597.97;5007449;28;20725;-64
2023/08/24 05:11:29;;;;;;;3.30;3.10;;;22.90;99.90;;;23.51;65.66;100614.41;4982079;28;21110;-63
2023/08/24 05:13:56;;;;;;;3.50;3.20;;;22.90;99.90;;;23.50;65.95;100618.06;5005833;28;20713;-64
2023/08/24 05:16:23;;;;;;;3.87;3.10;;;23.00;99.90;;;23.48;66.19;100631.59;4968059;28;20662;-64
2023/08/24 05:18:50;;;;;;;3.80;3.37;;;22.90;99.90;;;23.43;65.90;100659.81;4990239;28;20664;-64
2023/08/24 05:21:17;;;;;;;3.20;2.90;;;22.90;99.90;;;23.35;66.54;100675.91;4984602;28;20659;-63
2023/08/24 05:23:44;;;;;;;5.30;3.60;;;22.80;99.90;;;23.17;66.77;100704.81;4991336;28;21283;-66
2023/08/24 05:26:11;;;;;;;4.87;3.50;;;22.70;99.90;;;22.99;67.41;100716.72;4984073;28;20647;-63
2023/08/24 05:28:41;;;;;;;3.67;2.90;;;22.50;99.90;;;22.86;68.36;100737.84;4991721;28;20658;-63
2023/08/24 05:31:08;;;;;;;2.87;2.67;;;22.40;99.90;;;22.72;68.86;100746.66;4985923;28;20682;-63
2023/08/24 05:33:35;;;;;;;3.70;3.40;;;22.30;99.90;;;22.66;69.16;100754.59;4977367;28;20626;-65
2023/08/24 05:36:02;;;;;;;2.97;2.77;;;22.20;99.90;;;22.60;69.45;100763.28;4985075;28;20729;-64
2023/08/24 05:38:29;;;;;;;4.33;3.67;;;22.10;99.90;;;22.51;70.09;100769.69;4995543;28;20654;-63
2023/08/24 05:40:56;;;;;;;3.43;3.13;;;22.00;99.90;;;22.42;70.44;100776.09;4978464;28;20658;-63
2023/08/24 05:43:23;;;;;;;3.07;2.77;;;21.90;99.90;;;22.40;70.82;100776.28;4990460;28;20645;-63
2023/08/24 05:45:49;;;;;;;5.70;4.57;;;21.90;99.90;;;22.42;70.72;100777.72;4978496;28;20734;-63
2023/08/24 05:48:16;;;;;;;4.70;4.20;;;21.90;99.90;;;22.55;70.13;100768.31;4988522;28;21171;-63
2023/08/24 05:50:47;;;;;;;3.80;3.50;;;22.00;99.90;;;22.73;69.30;100758.97;4990710;28;20654;-64
2023/08/24 05:53:14;;;;;;;3.70;3.40;;;22.10;99.90;;;22.85;68.83;100741.50;4996307;28;20637;-64
2023/08/24 05:55:41;;;;;;;5.00;4.13;;;22.20;99.90;;;22.94;68.60;100735.06;4979074;28;20678;-64
2023/08/24 05:58:08;;;;;;;6.33;4.13;;;22.30;99.90;;;23.07;68.29;100737.03;4973331;28;21303;-64
2023/08/24 06:00:35;;;;;;;5.00;4.50;;;22.40;99.90;;;23.22;67.67;100718.34;4970540;28;20993;-63
2023/08/24 06:03:03;;;;;;;4.30;3.90;;;22.60;99.90;;;23.37;67.37;100730.63;4980041;28;21223;-64
2023/08/24 06:05:31;;;;;;;5.13;4.50;;;22.70;99.90;;;23.50;66.63;100717.44;4975838;28;20681;-63
2023/08/24 06:07:59;;;;;;;4.00;3.70;;;22.90;99.90;;;23.62;66.23;100715.06;4985581;28;20654;-64
2023/08/24 06:10:26;;;;;;;4.10;3.70;;;23.00;99.90;;;23.72;65.96;100715.59;4983036;28;20729;-64
2023/08/24 06:12:54;;;;;;;4.30;3.90;;;23.10;99.90;;;23.79;66.09;100727.91;4991246;28;20630;-64
2023/08/24 06:15:24;;;;;;;4.63;4.23;;;23.20;99.90;;;23.89;65.55;100743.59;4979507;28;20682;-64
2023/08/24 06:17:51;;;;;;;5.13;3.80;;;23.20;99.90;;;23.97;65.19;100731.94;4984919;28;20730;-64
2023/08/24 06:20:19;;;;;;;4.60;3.53;;;23.30;99.90;;;24.00;65.40;100724.38;4975630;28;20623;-64
2023/08/24 06:22:46;;;;;;;7.00;4.83;;;23.40;99.90;;;24.02;65.50;100724.19;4981816;28;20634;-64
2023/08/24 06:25:13;;;;;;;5.83;4.23;;;23.40;99.90;;;24.04;65.62;100712.38;4973835;28;20750;-63
2023/08/24 06:27:40;;;;;;;4.83;4.33;;;23.40;99.90;;;24.00;65.60;100715.59;4985537;28;20634;-64
2023/08/24 06:30:08;;;;;;;5.30;4.80;;;23.40;99.90;;;23.83;66.25;100697.22;4987067;28;20647;-63
2023/08/24 06:32:35;;;;;;;5.70;5.10;;;23.30;99.90;;;23.74;66.86;100687.75;4981139;28;20682;-64
2023/08/24 06:35:02;;;;;;;4.00;3.70;;;23.20;99.90;;;23.56;67.86;100675.91;5000909;28;20662;-64
2023/08/24 06:37:29;;;;;;;5.90;5.40;;;23.00;99.90;;;23.44;68.10;100664.13;4989332;28;20631;-64
2023/08/24 06:39:55;;;;;;;5.30;4.80;;;22.90;99.90;;;23.44;68.71;100661.47;4989288;28;21261;-64
2023/08/24 06:42:22;;;;;;;6.00;4.80;;;22.90;99.90;;;23.51;68.16;100671.13;4986002;28;20749;-64
2023/08/24 06:44:52;;;;;;;3.93;3.63;;;22.90;99.90;;;23.51;68.50;100667.69;4984519;28;20730;-64
2023/08/24 06:47:19;;;;;;;5.90;4.50;;;22.90;99.90;;;23.51;68.50;100671.13;4980792;28;20642;-64
2023/08/24 06:49:46;;;;;;;5.97;4.90;;;22.90;99.90;;;23.52;68.55;100671.97;4988960;28;20726;-64
2023/08/24 06:52:13;;;;;;;7.43;5.80;;;22.90;99.90;;;23.55;68.29;100679.59;4987953;28;20658;-65
2023/08/24 06:54:40;;;;;;;6.90;5.67;;;22.90;99.90;;;23.62;68.70;100675.94;4971340;28;20663;-64
2023/08/24 06:57:07;;;;;;;6.43;5.67;;;23.00;99.90;;;23.72;68.33;100670.28;4985020;28;20729;-65
2023/08/24 06:59:34;;;;;;;6.97;5.63;;;23.10;99.90;;;23.92;67.24;100665.91;4975874;28;20638;-65
2023/08/24 07:02:01;;;;;;;7.00;5.83;;;23.30;99.90;;;24.13;66.52;100665.06;4984842;28;20765;-65
2023/08/24 07:04:28;;;;;;;7.70;5.53;;;23.50;99.90;;;24.35;65.87;100662.06;4968637;28;20762;-64
2023/08/24 07:06:55;;;;;;;6.30;5.30;;;23.70;99.90;;;24.66;64.80;100675.72;4977767;28;20897;-64
2023/08/24 07:09:22;;;;;;;6.03;5.50;;;24.00;99.90;;;24.97;64.04;100667.22;4976552;28;21204;-65
2023/08/24 07:11:49;;;;;;;7.07;4.90;;;24.30;99.90;;;25.38;63.19;100667.06;4987082;28;20671;-64
2023/08/24 07:14:16;;;;;;;5.83;5.20;;;24.60;99.90;;;25.95;61.44;100664.56;4986157;28;21612;-64
2023/08/24 07:16:43;;;;;;;5.53;4.90;;;25.20;99.90;;;26.56;59.04;100659.66;4989329;28;21271;-64
2023/08/24 07:19:10;;;;;;;6.30;5.70;;;25.80;99.90;;;27.02;57.51;100664.78;4985071;28;20626;-64
2023/08/24 07:21:37;;;;;;;5.83;5.23;;;26.30;99.90;;;27.78;56.15;100667.25;4988233;28;20687;-64
2023/08/24 07:24:04;;;;;;;4.23;3.83;;;27.00;99.90;;;28.57;53.45;100676.13;4982014;28;20630;-64
2023/08/24 07:26:31;;;;;;;5.60;5.10;;;27.80;99.90;;;29.60;51.34;100668.59;4981264;28;20731;-65
2023/08/24 07:28:58;;;;;;;6.17;4.70;;;28.80;99.30;;;30.41;48.94;100680.13;4981814;28;20737;-64
2023/08/24 07:31:25;;;;;;;4.00;3.70;;;29.70;97.30;;;31.10;46.90;100683.59;4987151;28;20654;-65
2023/08/24 07:33:52;;;;;;;3.70;3.50;;;30.50;95.80;;;31.28;46.05;100686.88;4975356;28;20725;-64
2023/08/24 07:36:19;;;;;;;4.90;4.50;;;30.80;94.70;;;31.41;45.55;100690.38;4981327;28;20662;-65
2023/08/24 07:38:47;;;;;;;5.03;4.63;;;31.00;93.80;;;31.43;45.14;100694.47;4987579;28;21199;-64
2023/08/24 07:41:14;;;;;;;3.93;3.67;;;31.00;93.20;;;31.10;46.08;100694.38;4966317;28;20667;-64
2023/08/24 07:43:41;;;;;;;5.63;4.27;;;30.80;92.80;;;30.74;46.51;100700.97;4982931;28;20638;-64
2023/08/24 07:46:09;;;;;;;4.83;4.53;;;30.50;92.90;;;30.17;47.63;100708.13;4983632;28;20741;-64
2023/08/24 07:48:36;;;;;;;4.40;4.00;;;29.90;93.30;;;29.55;49.33;100701.56;4961765;28;20934;-64
2023/08/24 07:51:03;;;;;;;4.00;3.80;;;29.30;93.90;;;29.20;50.06;100706.03;4976252;28;20765;-64
2023/08/24 07:53:32;;;;;;;4.20;3.90;;;28.90;94.50;;;28.89;50.87;100711.63;4986394;28;20638;-65
2023/08/24 07:56:01;;;;;;;4.47;4.07;;;28.60;94.90;;;28.49;51.48;100705.94;4980525;28;20720;-65
2023/08/24 07:58:28;;;;;;;4.80;4.40;;;28.20;95.50;;;28.26;52.55;100693.19;4972616;28;21215;-65
2023/08/24 08:00:55;;;;;;;4.57;4.17;;;27.90;95.90;;;28.19;52.42;100691.63;4984434;28;20661;-65
2023/08/24 08:03:22;;;;;;;4.60;4.23;;;27.70;96.20;;;28.22;52.91;100677.75;4980786;28;20729;-65
2023/08/24 08:05:49;;;;;;;3.63;3.40;;;27.70;96.30;;;28.61;52.46;100663.06;4975356;28;20677;-65
2023/08/24 08:08:16;;;;;;;4.30;4.00;;;28.00;96.30;;;29.66;50.16;100654.22;4977925;28;20646;-65
2023/08/24 08:10:43;;;;;;;3.77;3.47;;;29.00;95.50;;;31.06;46.77;100648.25;4969565;28;20663;-66
2023/08/24 08:13:11;;;;;;;4.10;3.80;;;30.50;93.80;;;31.81;44.46;100629.75;4979920;28;20630;-63
2023/08/24 08:15:38;;;;;;;4.10;3.80;;;31.40;92.20;;;31.80;44.43;100624.59;4973534;28;20677;-62
2023/08/24 08:18:05;;;;;;;3.97;3.67;;;31.60;91.10;;;31.45;44.90;100614.13;4980702;28;20637;-66
2023/08/24 08:20:32;;;;;;;4.23;3.93;;;31.20;91.20;;;30.93;45.43;100602.75;4991062;28;20634;-63
2023/08/24 08:23:00;;;;;;;4.40;3.00;;;30.70;90.90;;;30.37;46.42;100592.00;4969601;28;20631;-63
2023/08/24 08:25:28;;;;;;;3.27;3.00;;;30.10;91.60;;;29.90;47.47;100589.41;4970607;28;20821;-63
2023/08/24 08:27:55;;;;;;;2.57;2.47;;;29.60;92.20;;;29.82;48.21;100579.03;4966964;28;21071;-63
2023/08/24 08:30:21;;;;;;;3.23;3.00;;;29.40;92.60;;;29.67;48.39;100572.47;4964737;28;20642;-65
2023/08/24 08:32:50;;;;;;;3.73;3.43;;;29.30;92.80;;;29.35;49.92;100565.84;4973136;28;20650;-66
2023/08/24 08:35:19;;;;;;;2.93;2.77;;;28.90;93.30;;;29.06;50.24;100557.66;4981773;28;21304;-65
2023/08/24 08:37:46;;;;;;;3.97;3.67;;;28.70;94.00;;;28.65;51.30;100572.97;4987940;28;20634;-65
2023/08/24 08:40:13;;;;;;;4.30;4.00;;;28.20;94.40;;;29.27;51.03;100568.88;4982377;28;20630;-65
2023/08/24 08:42:40;;;;;;;3.67;3.37;;;28.60;94.70;;;30.85;46.92;100575.38;4996226;28;20690;-65
2023/08/24 08:45:11;;;;;;;3.90;3.60;;;30.10;93.00;;;31.43;45.05;100573.13;4978963;28;21047;-63
2023/08/24 08:47:38;;;;;;;4.63;3.50;;;30.80;91.60;;;32.05;44.97;100569.09;4977170;28;20654;-63
2023/08/24 08:50:05;;;;;;;4.03;3.60;;;31.40;91.60;;;33.74;41.33;100576.53;4991993;28;20636;-63
2023/08/24 08:52:33;;;;;;;3.90;3.60;;;32.90;90.20;;;35.61;37.75;100575.72;4982719;28;21569;-63
2023/08/24 08:55:01;;;;;;;3.63;3.37;;;34.80;83.80;;;37.35;34.26;100574.13;4966779;28;21120;-63
2023/08/24 08:57:28;;;;;;;4.60;4.30;;;36.60;79.00;;;38.58;32.76;100584.00;4971650;28;20635;-64
2023/08/24 08:59:58;;;;;;;4.30;4.00;;;37.90;74.10;;;39.60;31.12;100578.44;4988723;28;21275;-64
2023/08/24 09:02:26;;;;;;;4.10;3.80;;;38.90;70.80;;;39.94;31.13;100565.97;4966468;28;20662;-63
2023/08/24 09:04:53;;;;;;;4.20;3.43;;;39.50;68.50;;;40.12;30.47;100543.19;4980976;28;20653;-63
2023/08/24 09:07:20;;;;;;;3.13;3.03;;;39.70;66.60;;;39.75;29.79;100535.25;4989483;28;20708;-63
2023/08/24 09:09:47;;;;;;;2.70;2.60;;;39.20;64.90;;;39.20;30.90;100537.16;4992686;28;20647;-63
2023/08/24 09:12:14;;;;;;;3.07;2.87;;;38.50;65.80;;;38.57;31.21;100531.38;4970509;28;20717;-63
2023/08/24 09:14:41;;;;;;;2.80;2.70;;;37.90;65.70;;;37.90;31.89;100521.75;4981165;28;20729;-63
2023/08/24 09:17:09;;;;;;;2.50;2.40;;;37.20;66.60;;;37.09;33.21;100515.59;4966802;28;20746;-63
2023/08/24 09:19:38;;;;;;;3.93;3.43;;;36.50;66.50;;;36.30;34.39;100507.78;4977309;28;20737;-62
2023/08/24 09:22:07;;;;;;;5.53;5.03;;;35.70;68.00;;;35.61;35.18;100499.72;5000703;28;20642;-63
2023/08/24 09:24:36;;;;;;;2.83;2.70;;;35.00;68.90;;;34.72;36.06;100486.88;4990035;28;20680;-63
2023/08/24 09:27:19;;;;;;;2.67;2.53;;;34.30;69.10;;;33.95;37.47;100470.78;4967043;28;20694;-63
2023/08/24 09:29:53;;;;;;;3.30;3.10;;;33.50;70.60;;;33.34;37.86;100464.31;4977863;28;20637;-63
2023/08/24 09:32:24;;;;;;;2.80;2.70;;;32.80;70.70;;;32.92;38.29;100455.41;4980160;28;20680;-63
2023/08/24 09:34:51;;;;;;;2.77;2.60;;;32.40;71.50;;;32.60;38.99;100449.25;4980709;28;20675;-63
2023/08/24 09:37:19;;;;;;;2.63;2.50;;;32.00;72.60;;;32.28;39.36;100453.81;4980581;28;21430;-65
2023/08/24 09:39:47;;;;;;;2.80;2.70;;;31.70;73.10;;;32.20;40.45;100446.16;4985829;28;21273;-65
2023/08/24 09:42:14;;;;;;;2.83;2.63;;;31.50;74.00;;;32.16;40.36;100442.34;4977604;28;20666;-65
2023/08/24 09:44:45;;;;;;;5.27;3.20;;;31.50;74.70;;;32.10;39.88;100441.47;4980341;28;20638;-65
2023/08/24 09:47:12;;;;;;;3.40;3.10;;;31.40;73.70;;;31.94;40.27;100445.13;4986307;28;20634;-65
2023/08/24 09:49:39;;;;;;;5.53;3.00;;;31.20;74.10;;;31.78;40.38;100436.00;4971550;28;20649;-65
2023/08/24 09:52:08;;;;;;;2.87;2.70;;;31.10;74.70;;;31.81;40.92;100427.41;4977663;28;20652;-65
2023/08/24 09:54:39;;;;;;;2.70;2.60;;;31.00;75.30;;;31.92;40.72;100418.31;4990410;28;20643;-65
2023/08/24 09:57:08;;;;;;;2.30;2.20;;;31.20;76.10;;;32.08;40.48;100419.31;4980652;28;21063;-65
2023/08/24 09:59:37;;;;;;;2.57;2.37;;;31.30;75.50;;;32.19;40.13;100414.84;4984627;28;20643;-65
2023/08/24 10:02:15;;;;;;;3.40;2.90;;;31.40;75.30;;;32.20;39.59;100416.47;4969445;28;21139;-65
2023/08/24 10:04:43;;;;;;;2.83;2.63;;;31.50;74.10;;;32.31;40.13;100420.91;4986030;28;20616;-64
2023/08/24 10:07:14;;;;;;;3.00;2.80;;;31.50;74.60;;;32.34;39.12;100418.50;4971575;28;20663;-65
2023/08/24 10:09:59;;;;;;;4.10;2.57;;;31.60;73.90;;;32.49;39.59;100413.25;4969564;28;20638;-65
2023/08/24 10:12:29;;;;;;;2.37;2.27;;;31.70;74.40;;;32.58;39.22;100419.78;4981693;28;20713;-66
2023/08/24 10:15:02;;;;;;;2.90;2.60;;;31.80;74.10;;;32.76;37.69;100418.53;5003645;28;20665;-68
2023/08/24 10:17:33;;;;;;;3.10;2.90;;;32.10;72.30;;;32.92;38.48;100412.16;4970992;28;20638;-68
2023/08/24 10:20:09;;;;;;;3.03;2.83;;;32.30;72.30;;;33.18;37.73;100415.84;4980915;28;20645;-68